Impacts TAF Board INFO
FOR SITUATIONAL AWARENESS. NOT TO BE USED FOR FLIGHT PLANNING PURPOSES.
IDs:

KPIT - Pittsburgh Intl, PA, US

Issued at 0841 UTC 18 Dec 2017
Updated at 1048 UTC 18 Dec 2017
Potential Impact None Slight Moderate High
Time0851Z 18/11Z 18/12Z 18/13Z 18/14Z 18/15Z 18/16Z 18/17Z 18/18Z 18/19Z 18/20Z 18/21Z 18/22Z 18/23Z>>
Type OBS PRVL PRVL PRVL PRVL PRVL PRVL PRVL PRVL PRVL PRVL PRVL PRVL PRVL
VIS 10 >6 >6 >6 >6 >6 >6 >6 >6 >6 >6 >6 >6 >6
CIG -- 40 20 20 20 20 8 8 8 8 8 8 8 8
Cover FEW OVC OVC OVC OVC OVC OVC OVC OVC OVC OVC OVC OVC OVC
FltCat VFR VFR MVFR MVFR MVFR MVFR IFR IFR IFR IFR IFR IFR IFR IFR
WX -- -- -- -- -- -- -DZ -DZ -DZ -DZ -DZ -DZ -DZ -DZ
WDir 190 200 220 220 220 220 230 230 230 230 230 230 230 230
WSpd 3 5 5 5 5 5 8 8 8 8 8 8 8 8
WGst -- -- -- -- -- -- -- -- -- -- -- -- -- --

Raw TAF
KPIT 180841Z 1809/1912 20005KT P6SM OVC040
  FM181200 22005KT P6SM OVC020
  FM181600 23008KT P6SM -DZ OVC008
  FM190000 23007KT P6SM OVC010
  FM190600 24008KT P6SM BKN006


Raw METAR
KPIT 180851Z 19003KT 10SM FEW041 03/M01 A3006 RMK AO2 SLP194 T00281006 56006
KPIT 180751Z 19003KT 10SM OVC041 03/00 A3006 RMK AO2 SLP196 T00330000

METAR Board
Radar Display
Forecast Discussion

FOR SITUATIONAL AWARENESS. NOT TO BE USED FOR FLIGHT PLANNING PURPOSES.